メインページ
METAR-TAF:

METAR-TAF

空港 :

フォス・ド・イグアス, パラナ州, ブラジル

フォス・ド・イグアス国際空港

緯度: 25-31S, 経度: 054-35W, 海抜: 180m

現時点の気象観測

当レポートは51分前の01:00(UTC)に作成
東/北東の風 5kt
気温 20°C
湿度 68%
気圧 1019 hPa
視程10km以上
1,500メートル以下は雲なし、積乱雲なし

METAR: SBFI 260100Z 07005KT CAVOK 20/14 Q1019

時間: 22:51 (01:51 UTC)

予報

当レポートは3時間21分前の22:30(UTC)に作成
予報は26日の 00時(UTC)から 26日の 24時(UTC)まで有効
東/北東の風 5kt
視程10km以上
1,500メートル以下は雲なし、積乱雲なし

TAF: SBFI 252230Z 2600/2624 07005KT CAVOK TN16/2609Z TX28/2618Z RMK PE R

4,000以上の空港の気象観測と天気予報(METAR報とTAF報)

利用可能な観測所は地図上に黄色い丸と赤い丸で示す。

丸の上にカーソルを重ねると観測所名を参照できる。

次にクリックすると気象観測と天気予報を参照できる。

マップの切り替え:黒色「×」印の緑ボタンをクリックして拡大、「-」印の緑ボタンをクリックして縮小、緑色の三角印をクリックして隣りの地図に切り替え


METAR-TAF: